createdAt,value
2023-03-05T00:01:09.141Z,99.90
2023-03-05T00:03:38.853Z,99.90
2023-03-05T00:06:06.045Z,99.90
2023-03-05T00:08:32.988Z,99.90
2023-03-05T00:11:02.349Z,99.90
2023-03-05T00:13:29.342Z,99.90
2023-03-05T00:15:57.447Z,99.90
2023-03-05T00:18:24.689Z,99.90
2023-03-05T00:20:57.308Z,99.90
2023-03-05T00:23:23.976Z,99.90
2023-03-05T00:25:50.757Z,99.90
2023-03-05T00:28:17.386Z,99.90
2023-03-05T00:30:44.034Z,99.90
2023-03-05T00:33:12.853Z,99.90
2023-03-05T00:35:41.361Z,99.90
2023-03-05T00:38:08.384Z,99.90
2023-03-05T00:40:37.413Z,99.90
2023-03-05T00:43:04.575Z,99.90
2023-03-05T00:45:31.253Z,99.90
2023-03-05T00:47:58.044Z,99.90
2023-03-05T00:50:25.143Z,99.90
2023-03-05T00:52:52.025Z,99.90
2023-03-05T00:55:18.984Z,99.90
2023-03-05T00:57:45.945Z,99.90
2023-03-05T01:00:14.268Z,99.90
2023-03-05T01:02:41.286Z,99.90
2023-03-05T01:05:15.437Z,99.90
2023-03-05T01:07:42.195Z,99.90
2023-03-05T01:10:09.930Z,99.90
2023-03-05T01:12:36.623Z,99.90
2023-03-05T01:15:04.256Z,99.90
2023-03-05T01:17:30.850Z,99.60
2023-03-05T01:19:57.466Z,99.40
2023-03-05T01:22:24.167Z,99.30
2023-03-05T01:24:50.766Z,99.10
2023-03-05T01:27:17.418Z,98.90
2023-03-05T01:29:44.105Z,98.70
2023-03-05T01:32:10.792Z,98.70
2023-03-05T01:34:37.802Z,98.10
2023-03-05T01:37:04.524Z,97.80
2023-03-05T01:39:32.241Z,97.90
2023-03-05T01:41:59.098Z,97.70
2023-03-05T01:44:29.363Z,97.60
2023-03-05T01:46:56.386Z,96.90
2023-03-05T01:49:29.321Z,97.00
2023-03-05T01:52:01.270Z,97.00
2023-03-05T01:54:38.940Z,96.90
2023-03-05T01:57:10.758Z,97.00
2023-03-05T01:59:39.896Z,97.10
2023-03-05T02:02:08.100Z,97.30
2023-03-05T02:04:45.999Z,97.40
2023-03-05T02:07:13.668Z,97.90
2023-03-05T02:09:41.300Z,97.70
2023-03-05T02:12:10.332Z,97.90
2023-03-05T02:14:38.518Z,97.90
2023-03-05T02:17:05.883Z,98.00
2023-03-05T02:19:50.673Z,98.10
2023-03-05T02:22:19.012Z,98.20
2023-03-05T02:24:45.604Z,98.30
2023-03-05T02:27:13.655Z,98.30
2023-03-05T02:29:43.231Z,98.20
2023-03-05T02:32:09.921Z,98.30
2023-03-05T02:34:37.310Z,98.40
2023-03-05T02:37:05.067Z,98.50
2023-03-05T02:39:32.032Z,98.90
2023-03-05T02:41:58.808Z,98.60
2023-03-05T02:44:25.596Z,98.60
2023-03-05T02:46:52.286Z,98.70
2023-03-05T02:49:18.959Z,98.70
2023-03-05T02:51:45.652Z,98.60
2023-03-05T02:54:12.394Z,98.70
2023-03-05T02:56:39.572Z,98.80
2023-03-05T02:59:06.192Z,98.90
2023-03-05T03:01:32.822Z,98.90
2023-03-05T03:03:59.516Z,99.00
2023-03-05T03:06:26.359Z,99.00
2023-03-05T03:08:53.067Z,99.00
2023-03-05T03:11:21.302Z,99.00
2023-03-05T03:13:47.994Z,99.00
2023-03-05T03:16:15.900Z,99.00
2023-03-05T03:18:44.250Z,99.00
2023-03-05T03:21:20.077Z,99.00
2023-03-05T03:23:46.973Z,99.00
2023-03-05T03:26:13.609Z,99.00
2023-03-05T03:28:40.269Z,99.40
2023-03-05T03:31:07.154Z,99.00
2023-03-05T03:33:33.749Z,99.10
2023-03-05T03:36:00.504Z,99.20
2023-03-05T03:38:27.110Z,99.10
2023-03-05T03:40:53.683Z,99.00
2023-03-05T03:43:20.259Z,98.90
2023-03-05T03:45:47.000Z,98.90
2023-03-05T03:48:13.741Z,98.90
2023-03-05T03:50:41.463Z,98.90
2023-03-05T03:53:08.675Z,98.90
2023-03-05T03:55:35.533Z,99.00
2023-03-05T03:58:02.236Z,98.90
2023-03-05T04:00:28.867Z,99.00
2023-03-05T04:02:55.573Z,98.70
2023-03-05T04:05:22.206Z,98.70
2023-03-05T04:07:48.795Z,98.70
2023-03-05T04:10:15.438Z,98.70
2023-03-05T04:12:43.482Z,98.60
2023-03-05T04:15:10.692Z,98.30
2023-03-05T04:17:37.491Z,98.20
2023-03-05T04:20:06.093Z,98.10
2023-03-05T04:22:32.709Z,98.20
2023-03-05T04:24:59.481Z,98.20
2023-03-05T04:27:26.083Z,97.90
2023-03-05T04:29:52.671Z,97.80
2023-03-05T04:32:23.126Z,97.70
2023-03-05T04:34:49.922Z,97.40
2023-03-05T04:37:16.502Z,97.40
2023-03-05T04:39:43.676Z,97.60
2023-03-05T04:42:10.508Z,97.80
2023-03-05T04:44:37.122Z,97.90
2023-03-05T04:47:03.827Z,98.00
2023-03-05T04:49:30.446Z,98.20
2023-03-05T04:51:57.596Z,98.20
2023-03-05T04:54:24.935Z,98.10
2023-03-05T04:56:51.536Z,98.20
2023-03-05T04:59:18.180Z,98.30
2023-03-05T05:01:45.879Z,98.40
2023-03-05T05:04:12.530Z,98.40
2023-03-05T05:06:39.149Z,98.60
2023-03-05T05:09:05.755Z,98.60
2023-03-05T05:11:32.373Z,98.60
2023-03-05T05:13:58.955Z,98.70
2023-03-05T05:16:25.642Z,98.70
2023-03-05T05:18:52.379Z,98.70
2023-03-05T05:21:20.315Z,98.70
2023-03-05T05:23:47.135Z,98.50
2023-03-05T05:26:14.326Z,98.60
2023-03-05T05:28:43.355Z,98.70
2023-03-05T05:31:12.315Z,98.60
2023-03-05T05:33:39.065Z,98.80
2023-03-05T05:36:08.286Z,98.80
2023-03-05T05:38:35.373Z,98.90
2023-03-05T05:41:06.902Z,98.80
2023-03-05T05:43:33.814Z,98.70
2023-03-05T05:46:02.424Z,98.70
2023-03-05T05:48:31.449Z,98.80
2023-03-05T05:50:58.779Z,98.80
2023-03-05T05:53:26.097Z,98.70
2023-03-05T05:55:52.846Z,98.60
2023-03-05T05:58:19.581Z,98.60
2023-03-05T06:00:46.286Z,98.60
2023-03-05T06:03:13.007Z,98.70
2023-03-05T06:05:41.861Z,98.70
2023-03-05T06:08:09.380Z,98.70
2023-03-05T06:10:36.118Z,98.60
2023-03-05T06:13:02.755Z,98.60
2023-03-05T06:15:29.469Z,98.60
2023-03-05T06:17:56.085Z,98.30
2023-03-05T06:20:23.144Z,98.10
2023-03-05T06:22:49.753Z,98.10
2023-03-05T06:25:16.508Z,97.80
2023-03-05T06:27:43.164Z,98.00
2023-03-05T06:30:11.494Z,98.20
2023-03-05T06:32:38.295Z,98.30
2023-03-05T06:35:05.408Z,98.20
2023-03-05T06:37:32.030Z,98.10
2023-03-05T06:39:58.695Z,98.00
2023-03-05T06:42:25.307Z,98.10
2023-03-05T06:44:51.940Z,98.00
2023-03-05T06:47:18.532Z,97.90
2023-03-05T06:49:45.156Z,97.80
2023-03-05T06:52:12.719Z,98.00
2023-03-05T06:54:39.370Z,97.60
2023-03-05T06:57:05.997Z,97.60
2023-03-05T06:59:32.596Z,97.40
2023-03-05T07:02:00.249Z,97.30
2023-03-05T07:04:26.842Z,97.10
2023-03-05T07:06:53.528Z,97.10
2023-03-05T07:09:20.174Z,96.80
2023-03-05T07:11:46.851Z,96.80
2023-03-05T07:14:13.620Z,96.90
2023-03-05T07:16:40.287Z,97.00
2023-03-05T07:19:07.903Z,96.90
2023-03-05T07:21:37.424Z,97.10
2023-03-05T07:24:06.612Z,97.00
2023-03-05T07:26:33.632Z,96.80
2023-03-05T07:29:01.413Z,96.90
2023-03-05T07:31:30.991Z,96.90
2023-03-05T07:33:59.395Z,96.70
2023-03-05T07:36:27.266Z,96.80
2023-03-05T07:38:54.344Z,96.80
2023-03-05T07:41:23.393Z,96.40
2023-03-05T07:43:52.334Z,96.50
2023-03-05T07:46:20.761Z,96.60
2023-03-05T07:48:47.521Z,96.60
2023-03-05T07:51:17.256Z,96.40
2023-03-05T07:53:45.737Z,96.60
2023-03-05T07:56:12.675Z,96.60
2023-03-05T07:58:39.477Z,96.40
2023-03-05T08:01:13.977Z,96.60
2023-03-05T08:03:41.827Z,96.40
2023-03-05T08:06:09.881Z,96.10
2023-03-05T08:08:36.998Z,96.40
2023-03-05T08:11:09.237Z,96.60
2023-03-05T08:13:36.423Z,96.50
2023-03-05T08:16:08.515Z,96.50
2023-03-05T08:18:35.476Z,96.60
2023-03-05T08:21:02.239Z,96.40
2023-03-05T08:23:29.499Z,96.20
2023-03-05T08:25:56.233Z,96.10
2023-03-05T08:28:26.122Z,96.10
2023-03-05T08:30:52.937Z,96.00
2023-03-05T08:33:19.646Z,95.80
2023-03-05T08:35:46.361Z,96.00
2023-03-05T08:38:13.569Z,96.30
2023-03-05T08:40:40.273Z,96.00
2023-03-05T08:43:07.234Z,96.10
2023-03-05T08:45:33.929Z,95.60
2023-03-05T08:48:00.607Z,95.80
2023-03-05T08:50:27.332Z,95.60
2023-03-05T08:52:53.992Z,95.60
2023-03-05T08:55:20.598Z,96.00
2023-03-05T08:57:47.447Z,95.50
2023-03-05T09:00:14.463Z,95.20
2023-03-05T09:02:41.210Z,95.00
2023-03-05T09:05:10.286Z,94.30
2023-03-05T09:07:37.848Z,94.00
2023-03-05T09:10:06.001Z,94.20
2023-03-05T09:12:32.630Z,93.90
2023-03-05T09:14:59.249Z,94.50
2023-03-05T09:17:25.812Z,92.40
2023-03-05T09:19:52.616Z,86.80
2023-03-05T09:22:19.207Z,84.60
2023-03-05T09:24:45.912Z,83.00
2023-03-05T09:27:12.569Z,83.80
2023-03-05T09:29:41.298Z,86.10
2023-03-05T09:32:09.483Z,85.50
2023-03-05T09:34:36.202Z,87.10
2023-03-05T09:37:03.867Z,86.70
2023-03-05T09:39:32.562Z,89.10
2023-03-05T09:42:20.674Z,88.80
2023-03-05T09:45:10.868Z,89.30
2023-03-05T09:48:06.871Z,88.50
2023-03-05T09:50:41.829Z,89.90
2023-03-05T09:53:24.015Z,87.60
2023-03-05T09:55:53.542Z,89.10
2023-03-05T09:58:37.166Z,87.50
2023-03-05T10:01:14.018Z,87.70
2023-03-05T10:03:49.711Z,88.30
2023-03-05T10:06:39.147Z,88.10
2023-03-05T10:09:11.760Z,89.20
2023-03-05T10:12:10.875Z,90.20
2023-03-05T10:14:40.344Z,90.60
2023-03-05T10:17:31.655Z,90.10
2023-03-05T10:19:58.488Z,90.30
2023-03-05T10:22:26.787Z,90.80
2023-03-05T10:25:17.694Z,90.90
2023-03-05T10:27:56.417Z,90.00
2023-03-05T10:31:05.508Z,87.00
2023-03-05T10:33:54.489Z,86.00
2023-03-05T10:36:44.882Z,88.20
2023-03-05T10:39:52.273Z,85.90
2023-03-05T10:42:33.966Z,86.20
2023-03-05T10:45:14.061Z,85.40
2023-03-05T10:47:55.404Z,86.00
2023-03-05T10:50:25.302Z,83.90
2023-03-05T10:53:13.962Z,83.30
2023-03-05T10:55:41.610Z,84.30
2023-03-05T10:58:17.182Z,85.00
2023-03-05T11:01:05.886Z,83.70
2023-03-05T11:04:05.594Z,85.90
2023-03-05T11:06:37.436Z,85.00
2023-03-05T11:09:24.247Z,85.80
2023-03-05T11:12:13.724Z,84.60
2023-03-05T11:14:47.605Z,86.00
2023-03-05T11:17:27.463Z,86.30
2023-03-05T11:19:55.601Z,87.40
2023-03-05T11:22:24.949Z,86.40
2023-03-05T11:25:21.350Z,87.10
2023-03-05T11:27:55.421Z,86.80
2023-03-05T11:30:36.626Z,86.20
2023-03-05T11:33:20.384Z,86.20
2023-03-05T11:35:49.390Z,87.50
2023-03-05T11:38:27.366Z,86.30
2023-03-05T11:40:56.403Z,85.80
2023-03-05T11:43:25.501Z,87.20
2023-03-05T11:45:59.157Z,86.70
2023-03-05T11:48:34.558Z,86.90
2023-03-05T11:51:05.496Z,87.20
2023-03-05T11:53:35.889Z,88.40
2023-03-05T11:56:19.640Z,89.60
2023-03-05T11:59:07.706Z,89.40
2023-03-05T12:01:44.686Z,90.30
2023-03-05T12:04:11.766Z,91.00
2023-03-05T12:06:44.588Z,91.30
2023-03-05T12:09:20.532Z,92.20
2023-03-05T12:11:51.400Z,92.70
2023-03-05T12:14:32.827Z,94.00
2023-03-05T12:17:31.545Z,93.90
2023-03-05T12:20:07.023Z,94.30
2023-03-05T12:22:39.767Z,94.10
2023-03-05T12:25:25.367Z,94.00
2023-03-05T12:27:52.004Z,94.10
2023-03-05T12:30:42.294Z,93.70
2023-03-05T12:33:37.077Z,94.00
2023-03-05T12:36:22.242Z,93.80
2023-03-05T12:38:56.668Z,94.10
2023-03-05T12:41:23.190Z,93.90
2023-03-05T12:44:05.010Z,94.30
2023-03-05T12:46:39.830Z,93.70
2023-03-05T12:49:18.964Z,94.10
2023-03-05T12:51:51.010Z,93.50
2023-03-05T12:54:34.352Z,93.60
2023-03-05T12:57:22.743Z,92.90
2023-03-05T13:00:05.198Z,93.10
2023-03-05T13:02:36.597Z,93.50
2023-03-05T13:05:14.065Z,94.00
2023-03-05T13:07:40.730Z,93.80
2023-03-05T13:10:20.874Z,93.90
2023-03-05T13:12:53.444Z,94.40
2023-03-05T13:15:21.835Z,94.70
2023-03-05T13:18:03.410Z,94.80
2023-03-05T13:20:38.391Z,95.30
2023-03-05T13:23:07.708Z,95.00
2023-03-05T13:25:34.518Z,94.50
2023-03-05T13:28:12.776Z,94.10
2023-03-05T13:30:39.592Z,93.20
2023-03-05T13:33:14.190Z,92.90
2023-03-05T13:35:46.256Z,92.70
2023-03-05T13:38:36.904Z,92.60
2023-03-05T13:41:05.113Z,92.70
2023-03-05T13:43:32.095Z,92.80
2023-03-05T13:45:59.399Z,92.70
2023-03-05T13:48:28.313Z,93.20
2023-03-05T13:50:58.789Z,92.90
2023-03-05T13:53:29.652Z,92.60
2023-03-05T13:56:05.885Z,92.80
2023-03-05T13:58:48.955Z,93.00
2023-03-05T14:01:43.752Z,93.40
2023-03-05T14:04:13.349Z,93.00
2023-03-05T14:07:17.732Z,93.30
2023-03-05T14:09:47.707Z,93.30
2023-03-05T14:12:30.390Z,93.30
2023-03-05T14:14:59.397Z,92.70
2023-03-05T14:17:43.681Z,93.20
2023-03-05T14:20:23.040Z,93.00
2023-03-05T14:22:52.999Z,93.00
2023-03-05T14:25:29.344Z,92.40
2023-03-05T14:27:57.425Z,92.00
2023-03-05T14:30:25.469Z,92.20
2023-03-05T14:32:55.350Z,92.10
2023-03-05T14:35:25.697Z,92.40
2023-03-05T14:37:54.587Z,92.60
2023-03-05T14:40:33.971Z,92.50
2023-03-05T14:43:05.813Z,92.40
2023-03-05T14:45:36.701Z,92.60
2023-03-05T14:48:05.559Z,92.20
2023-03-05T14:50:43.327Z,92.50
2023-03-05T14:53:15.450Z,92.60
2023-03-05T14:55:48.787Z,92.50
2023-03-05T14:58:18.415Z,92.70
2023-03-05T15:00:45.554Z,92.50
2023-03-05T15:03:13.853Z,92.50
2023-03-05T15:05:41.390Z,92.60
2023-03-05T15:08:18.376Z,92.50
2023-03-05T15:10:45.040Z,92.50
2023-03-05T15:13:14.437Z,92.30
2023-03-05T15:15:43.324Z,92.30
2023-03-05T15:18:13.282Z,92.50
2023-03-05T15:20:40.677Z,92.40
2023-03-05T15:23:07.764Z,92.50
2023-03-05T15:25:35.141Z,91.70
2023-03-05T15:28:20.268Z,91.80
2023-03-05T15:30:47.559Z,91.50
2023-03-05T15:33:16.211Z,92.40
2023-03-05T15:35:44.286Z,91.80
2023-03-05T15:38:10.932Z,91.70
2023-03-05T15:40:37.539Z,91.80
2023-03-05T15:43:06.354Z,92.00
2023-03-05T15:45:32.993Z,92.20
2023-03-05T15:47:59.740Z,92.10
2023-03-05T15:50:27.871Z,92.40
2023-03-05T15:52:54.592Z,92.70
2023-03-05T15:55:23.538Z,92.10
2023-03-05T15:57:52.400Z,92.20
2023-03-05T16:00:31.417Z,92.40
2023-03-05T16:02:58.331Z,92.40
2023-03-05T16:05:25.172Z,92.40
2023-03-05T16:07:53.272Z,92.70
2023-03-05T16:10:23.988Z,92.90
2023-03-05T16:12:54.843Z,92.90
2023-03-05T16:15:22.213Z,92.80
2023-03-05T16:17:53.022Z,92.90
2023-03-05T16:20:20.308Z,92.70
2023-03-05T16:22:47.107Z,92.80
2023-03-05T16:25:13.890Z,93.00
2023-03-05T16:27:40.519Z,93.10
2023-03-05T16:30:07.889Z,93.30
2023-03-05T16:32:34.593Z,93.50
2023-03-05T16:35:02.414Z,93.60
2023-03-05T16:37:29.722Z,93.70
2023-03-05T16:39:59.322Z,93.90
2023-03-05T16:42:26.039Z,94.30
2023-03-05T16:44:52.804Z,94.20
2023-03-05T16:47:21.563Z,94.20
2023-03-05T16:49:48.226Z,94.30
2023-03-05T16:52:19.778Z,94.10
2023-03-05T16:54:48.299Z,94.10
2023-03-05T16:57:15.347Z,94.50
2023-03-05T16:59:43.429Z,94.70
2023-03-05T17:02:12.640Z,94.70
2023-03-05T17:04:39.253Z,94.90
2023-03-05T17:07:06.076Z,95.00
2023-03-05T17:09:33.182Z,95.20
2023-03-05T17:12:00.176Z,95.30
2023-03-05T17:14:26.995Z,95.30
2023-03-05T17:16:54.122Z,95.60
2023-03-05T17:19:20.826Z,95.40
2023-03-05T17:21:50.628Z,95.60
2023-03-05T17:24:22.600Z,95.80
2023-03-05T17:26:50.006Z,95.90
2023-03-05T17:29:16.802Z,95.90
2023-03-05T17:31:43.743Z,96.00
2023-03-05T17:34:10.488Z,95.70
2023-03-05T17:36:39.232Z,96.00
2023-03-05T17:39:06.013Z,95.70
2023-03-05T17:41:32.704Z,95.60
2023-03-05T17:43:59.451Z,95.80
2023-03-05T17:46:26.285Z,95.70
2023-03-05T17:48:52.935Z,95.50
2023-03-05T17:51:21.239Z,95.60
2023-03-05T17:53:48.113Z,95.70
2023-03-05T17:56:17.098Z,95.70
2023-03-05T17:58:45.838Z,95.80
2023-03-05T18:01:12.731Z,95.90
2023-03-05T18:03:39.477Z,96.10
2023-03-05T18:06:06.328Z,96.20
2023-03-05T18:08:32.981Z,96.40
2023-03-05T18:10:59.630Z,96.30
2023-03-05T18:13:26.388Z,96.30
2023-03-05T18:15:53.054Z,96.30
2023-03-05T18:18:19.811Z,96.70
2023-03-05T18:20:48.535Z,96.90
2023-03-05T18:23:15.509Z,97.10
2023-03-05T18:25:42.472Z,97.00
2023-03-05T18:28:16.466Z,97.20
2023-03-05T18:30:45.091Z,97.30
2023-03-05T18:33:19.598Z,97.30
2023-03-05T18:35:49.710Z,97.40
2023-03-05T18:38:16.349Z,97.50
2023-03-05T18:40:43.720Z,98.00
2023-03-05T18:43:10.553Z,97.70
2023-03-05T18:45:37.247Z,97.90
2023-03-05T18:48:03.945Z,98.00
2023-03-05T18:50:30.981Z,98.00
2023-03-05T18:52:57.710Z,98.10
2023-03-05T18:55:27.407Z,98.20
2023-03-05T18:57:54.686Z,98.30
2023-03-05T19:00:27.377Z,98.30
2023-03-05T19:02:55.264Z,98.30
2023-03-05T19:05:22.888Z,98.30
2023-03-05T19:07:49.660Z,98.30
2023-03-05T19:10:17.569Z,98.50
2023-03-05T19:13:05.601Z,98.70
2023-03-05T19:15:32.715Z,98.70
2023-03-05T19:17:59.850Z,98.80
2023-03-05T19:20:26.496Z,98.80
2023-03-05T19:22:55.721Z,98.70
2023-03-05T19:25:22.779Z,98.90
2023-03-05T19:27:49.411Z,99.00
2023-03-05T19:30:16.618Z,99.00
2023-03-05T19:32:43.454Z,99.10
2023-03-05T19:35:15.080Z,99.20
2023-03-05T19:37:41.969Z,99.30
2023-03-05T19:40:11.864Z,99.30
2023-03-05T19:42:39.081Z,99.30
2023-03-05T19:45:07.152Z,99.20
2023-03-05T19:47:34.308Z,99.20
2023-03-05T19:50:01.042Z,99.20
2023-03-05T19:52:27.849Z,99.20
2023-03-05T19:54:54.612Z,99.20
2023-03-05T19:57:23.359Z,99.30
2023-03-05T19:59:53.850Z,99.20
2023-03-05T20:02:21.863Z,99.50
2023-03-05T20:04:49.556Z,99.30
2023-03-05T20:07:16.562Z,99.40
2023-03-05T20:09:43.236Z,99.50
2023-03-05T20:12:15.004Z,99.40
2023-03-05T20:14:41.594Z,99.50
2023-03-05T20:17:08.264Z,99.60
2023-03-05T20:19:35.018Z,99.60
2023-03-05T20:22:01.718Z,99.50
2023-03-05T20:24:28.365Z,99.60
2023-03-05T20:26:55.137Z,99.60
2023-03-05T20:29:21.918Z,99.60
2023-03-05T20:31:50.013Z,99.80
2023-03-05T20:34:18.519Z,99.60
2023-03-05T20:36:47.285Z,99.60
2023-03-05T20:39:16.128Z,99.60
2023-03-05T20:41:42.820Z,99.70
2023-03-05T20:44:11.306Z,99.70
2023-03-05T20:46:45.223Z,99.70
2023-03-05T20:49:13.852Z,99.70
2023-03-05T20:51:40.461Z,99.60
2023-03-05T20:54:11.019Z,99.70
2023-03-05T20:56:38.536Z,99.80
2023-03-05T20:59:08.541Z,99.80
2023-03-05T21:01:37.314Z,99.80
2023-03-05T21:04:04.298Z,99.90
2023-03-05T21:06:33.197Z,99.90
2023-03-05T21:09:00.097Z,99.90
2023-03-05T21:11:27.563Z,99.90
2023-03-05T21:13:54.234Z,99.90
2023-03-05T21:16:23.694Z,99.90
2023-03-05T21:18:51.305Z,99.90
2023-03-05T21:21:18.387Z,99.90
2023-03-05T21:23:46.082Z,99.90
2023-03-05T21:26:13.588Z,99.90
2023-03-05T21:28:40.807Z,99.90
2023-03-05T21:31:10.686Z,99.90
2023-03-05T21:33:37.936Z,99.90
2023-03-05T21:36:05.104Z,99.90
2023-03-05T21:38:33.925Z,99.90
2023-03-05T21:41:01.913Z,99.90
2023-03-05T21:43:31.204Z,99.90
2023-03-05T21:45:59.860Z,99.90
2023-03-05T21:48:26.622Z,99.90
2023-03-05T21:50:54.708Z,99.90
2023-03-05T21:53:21.909Z,99.90
2023-03-05T21:55:57.968Z,99.90
2023-03-05T21:58:24.807Z,99.90
2023-03-05T22:00:51.548Z,99.90
2023-03-05T22:03:18.370Z,99.90
2023-03-05T22:05:45.438Z,99.90
2023-03-05T22:08:12.005Z,99.90
2023-03-05T22:10:40.960Z,99.90
2023-03-05T22:13:11.778Z,99.90
2023-03-05T22:15:48.909Z,99.90
2023-03-05T22:18:18.888Z,99.90
2023-03-05T22:20:51.167Z,99.90
2023-03-05T22:23:19.349Z,99.90
2023-03-05T22:25:45.995Z,99.90
2023-03-05T22:28:13.447Z,99.90
2023-03-05T22:30:44.753Z,99.90
2023-03-05T22:33:12.178Z,99.90
2023-03-05T22:35:42.374Z,99.90
2023-03-05T22:38:10.030Z,99.90
2023-03-05T22:40:40.145Z,99.90
2023-03-05T22:43:06.763Z,99.90
2023-03-05T22:45:33.503Z,99.90
2023-03-05T22:48:05.888Z,99.90
2023-03-05T22:50:32.656Z,99.90
2023-03-05T22:52:59.637Z,99.90
2023-03-05T22:55:26.327Z,99.90
2023-03-05T22:57:53.310Z,99.90
2023-03-05T23:00:23.472Z,99.90
2023-03-05T23:02:51.500Z,99.90
2023-03-05T23:05:19.129Z,99.90
2023-03-05T23:07:46.231Z,99.90
2023-03-05T23:10:26.932Z,99.90
2023-03-05T23:12:55.239Z,99.90
2023-03-05T23:15:26.524Z,99.90
2023-03-05T23:17:53.468Z,99.90
2023-03-05T23:20:23.181Z,99.90
2023-03-05T23:22:52.743Z,99.90
2023-03-05T23:25:20.511Z,99.90
2023-03-05T23:27:47.241Z,99.90
2023-03-05T23:30:37.265Z,99.90
2023-03-05T23:33:07.098Z,99.90
2023-03-05T23:35:37.185Z,99.90
2023-03-05T23:38:09.421Z,99.90
2023-03-05T23:40:39.901Z,99.90
2023-03-05T23:43:06.733Z,99.90
2023-03-05T23:45:33.839Z,99.90
2023-03-05T23:48:00.631Z,99.90
2023-03-05T23:50:32.982Z,99.90
2023-03-05T23:53:02.182Z,99.90
2023-03-05T23:55:52.287Z,99.90
2023-03-05T23:58:20.453Z,99.90
